sensor_id;sensor_type;location;lat;lon;timestamp;temperature;humidity
51021;DHT22;38907;45.562;8.856;2023-11-18T00:01:34;10.70;86.90
51021;DHT22;38907;45.562;8.856;2023-11-18T00:06:37;10.70;86.50
51021;DHT22;38907;45.562;8.856;2023-11-18T00:11:39;10.80;86.40
51021;DHT22;38907;45.562;8.856;2023-11-18T00:16:42;10.80;86.60
51021;DHT22;38907;45.562;8.856;2023-11-18T00:21:44;10.70;87.00
51021;DHT22;38907;45.562;8.856;2023-11-18T00:26:46;10.70;87.30
51021;DHT22;38907;45.562;8.856;2023-11-18T00:31:49;10.70;87.30
51021;DHT22;38907;45.562;8.856;2023-11-18T00:36:51;10.70;88.10
51021;DHT22;38907;45.562;8.856;2023-11-18T00:41:53;10.50;89.80
51021;DHT22;38907;45.562;8.856;2023-11-18T00:46:57;10.10;91.60
51021;DHT22;38907;45.562;8.856;2023-11-18T00:52:01;10.20;92.20
51021;DHT22;38907;45.562;8.856;2023-11-18T00:57:04;10.10;92.40
51021;DHT22;38907;45.562;8.856;2023-11-18T01:02:07;9.90;92.90
51021;DHT22;38907;45.562;8.856;2023-11-18T01:07:09;9.70;93.30
51021;DHT22;38907;45.562;8.856;2023-11-18T01:12:11;9.50;93.10
51021;DHT22;38907;45.562;8.856;2023-11-18T01:17:14;9.80;92.50
51021;DHT22;38907;45.562;8.856;2023-11-18T01:22:17;9.90;91.80
51021;DHT22;38907;45.562;8.856;2023-11-18T01:27:19;9.90;91.60
51021;DHT22;38907;45.562;8.856;2023-11-18T01:32:22;10.00;91.20
51021;DHT22;38907;45.562;8.856;2023-11-18T01:37:25;10.10;91.00
51021;DHT22;38907;45.562;8.856;2023-11-18T01:42:27;10.10;90.70
51021;DHT22;38907;45.562;8.856;2023-11-18T01:47:33;10.20;89.80
51021;DHT22;38907;45.562;8.856;2023-11-18T01:52:35;10.40;88.70
51021;DHT22;38907;45.562;8.856;2023-11-18T01:57:37;10.10;90.10
51021;DHT22;38907;45.562;8.856;2023-11-18T02:02:42;10.10;90.50
51021;DHT22;38907;45.562;8.856;2023-11-18T02:07:44;9.90;90.30
51021;DHT22;38907;45.562;8.856;2023-11-18T02:12:55;9.90;90.60
51021;DHT22;38907;45.562;8.856;2023-11-18T02:18:02;9.80;90.40
51021;DHT22;38907;45.562;8.856;2023-11-18T02:23:05;9.80;90.60
51021;DHT22;38907;45.562;8.856;2023-11-18T02:28:09;9.60;91.10
51021;DHT22;38907;45.562;8.856;2023-11-18T02:33:17;9.40;91.20
51021;DHT22;38907;45.562;8.856;2023-11-18T02:38:27;9.60;90.80
51021;DHT22;38907;45.562;8.856;2023-11-18T02:43:36;9.50;90.80
51021;DHT22;38907;45.562;8.856;2023-11-18T02:48:40;9.50;90.70
51021;DHT22;38907;45.562;8.856;2023-11-18T02:53:43;9.40;91.10
51021;DHT22;38907;45.562;8.856;2023-11-18T02:58:46;9.30;91.20
51021;DHT22;38907;45.562;8.856;2023-11-18T03:03:48;9.30;91.60
51021;DHT22;38907;45.562;8.856;2023-11-18T03:08:50;9.20;91.50
51021;DHT22;38907;45.562;8.856;2023-11-18T03:13:53;9.20;91.80
51021;DHT22;38907;45.562;8.856;2023-11-18T03:18:55;9.30;92.00
51021;DHT22;38907;45.562;8.856;2023-11-18T03:23:58;8.90;92.00
51021;DHT22;38907;45.562;8.856;2023-11-18T03:29:01;9.10;91.60
51021;DHT22;38907;45.562;8.856;2023-11-18T03:34:03;9.30;91.60
51021;DHT22;38907;45.562;8.856;2023-11-18T03:39:05;9.30;91.60
51021;DHT22;38907;45.562;8.856;2023-11-18T03:44:08;9.20;91.90
51021;DHT22;38907;45.562;8.856;2023-11-18T03:49:10;8.90;92.30
51021;DHT22;38907;45.562;8.856;2023-11-18T03:54:12;8.90;91.80
51021;DHT22;38907;45.562;8.856;2023-11-18T03:59:15;8.90;91.90
51021;DHT22;38907;45.562;8.856;2023-11-18T04:04:17;9.00;91.60
51021;DHT22;38907;45.562;8.856;2023-11-18T04:09:19;9.10;91.50
51021;DHT22;38907;45.562;8.856;2023-11-18T04:14:22;9.20;90.80
51021;DHT22;38907;45.562;8.856;2023-11-18T04:19:26;9.20;90.60
51021;DHT22;38907;45.562;8.856;2023-11-18T04:24:28;9.10;90.80
51021;DHT22;38907;45.562;8.856;2023-11-18T04:29:31;9.20;93.40
51021;DHT22;38907;45.562;8.856;2023-11-18T04:34:35;9.10;93.90
51021;DHT22;38907;45.562;8.856;2023-11-18T04:39:37;9.00;94.80
51021;DHT22;38907;45.562;8.856;2023-11-18T04:44:40;9.00;94.80
51021;DHT22;38907;45.562;8.856;2023-11-18T04:49:42;8.90;94.70
51021;DHT22;38907;45.562;8.856;2023-11-18T04:54:44;8.70;94.20
51021;DHT22;38907;45.562;8.856;2023-11-18T04:59:49;8.70;95.00
51021;DHT22;38907;45.562;8.856;2023-11-18T05:04:51;8.30;95.70
51021;DHT22;38907;45.562;8.856;2023-11-18T05:09:53;7.90;96.60
51021;DHT22;38907;45.562;8.856;2023-11-18T05:14:57;7.90;98.00
51021;DHT22;38907;45.562;8.856;2023-11-18T05:19:58;7.80;98.20
51021;DHT22;38907;45.562;8.856;2023-11-18T05:25:01;7.80;98.00
51021;DHT22;38907;45.562;8.856;2023-11-18T05:30:05;7.50;98.90
51021;DHT22;38907;45.562;8.856;2023-11-18T05:35:08;7.50;97.30
51021;DHT22;38907;45.562;8.856;2023-11-18T05:40:12;7.70;95.60
51021;DHT22;38907;45.562;8.856;2023-11-18T05:45:17;7.80;95.60
51021;DHT22;38907;45.562;8.856;2023-11-18T05:50:28;7.80;95.10
51021;DHT22;38907;45.562;8.856;2023-11-18T05:55:30;7.90;94.90
51021;DHT22;38907;45.562;8.856;2023-11-18T06:00:33;8.00;94.60
51021;DHT22;38907;45.562;8.856;2023-11-18T06:05:35;7.90;95.20
51021;DHT22;38907;45.562;8.856;2023-11-18T06:10:37;7.90;96.40
51021;DHT22;38907;45.562;8.856;2023-11-18T06:15:40;7.40;97.90
51021;DHT22;38907;45.562;8.856;2023-11-18T06:20:42;7.40;98.20
51021;DHT22;38907;45.562;8.856;2023-11-18T06:25:44;7.60;97.60
51021;DHT22;38907;45.562;8.856;2023-11-18T06:30:48;7.60;98.10
51021;DHT22;38907;45.562;8.856;2023-11-18T06:35:50;7.80;97.40
51021;DHT22;38907;45.562;8.856;2023-11-18T06:40:55;8.00;96.50
51021;DHT22;38907;45.562;8.856;2023-11-18T06:45:58;8.10;96.30
51021;DHT22;38907;45.562;8.856;2023-11-18T06:51:00;8.10;96.80
51021;DHT22;38907;45.562;8.856;2023-11-18T06:56:03;8.00;97.60
51021;DHT22;38907;45.562;8.856;2023-11-18T07:01:06;8.10;97.30
51021;DHT22;38907;45.562;8.856;2023-11-18T07:06:09;8.40;96.30
51021;DHT22;38907;45.562;8.856;2023-11-18T07:11:11;8.60;96.70
51021;DHT22;38907;45.562;8.856;2023-11-18T07:16:14;8.60;96.80
51021;DHT22;38907;45.562;8.856;2023-11-18T07:21:16;8.70;97.00
51021;DHT22;38907;45.562;8.856;2023-11-18T07:26:17;8.70;97.20
51021;DHT22;38907;45.562;8.856;2023-11-18T07:31:21;9.00;96.70
51021;DHT22;38907;45.562;8.856;2023-11-18T07:36:23;9.20;96.60
51021;DHT22;38907;45.562;8.856;2023-11-18T07:41:26;9.30;96.70
51021;DHT22;38907;45.562;8.856;2023-11-18T07:46:29;9.40;96.20
51021;DHT22;38907;45.562;8.856;2023-11-18T07:51:31;9.60;95.90
51021;DHT22;38907;45.562;8.856;2023-11-18T07:56:33;9.70;95.40
51021;DHT22;38907;45.562;8.856;2023-11-18T08:01:40;9.80;95.60
51021;DHT22;38907;45.562;8.856;2023-11-18T08:06:44;9.90;94.70
51021;DHT22;38907;45.562;8.856;2023-11-18T08:11:46;10.10;94.00
51021;DHT22;38907;45.562;8.856;2023-11-18T08:16:52;10.30;93.00
51021;DHT22;38907;45.562;8.856;2023-11-18T08:21:56;10.60;90.50
51021;DHT22;38907;45.562;8.856;2023-11-18T08:26:58;10.90;88.20
51021;DHT22;38907;45.562;8.856;2023-11-18T08:32:02;11.10;87.40
51021;DHT22;38907;45.562;8.856;2023-11-18T08:37:04;11.30;86.30
51021;DHT22;38907;45.562;8.856;2023-11-18T08:42:06;11.60;84.70
51021;DHT22;38907;45.562;8.856;2023-11-18T08:47:09;11.70;82.00
51021;DHT22;38907;45.562;8.856;2023-11-18T08:52:13;11.80;83.90
51021;DHT22;38907;45.562;8.856;2023-11-18T08:57:15;11.80;86.30
51021;DHT22;38907;45.562;8.856;2023-11-18T09:02:27;11.80;86.00
51021;DHT22;38907;45.562;8.856;2023-11-18T09:07:30;12.10;84.70
51021;DHT22;38907;45.562;8.856;2023-11-18T09:12:31;12.20;83.70
51021;DHT22;38907;45.562;8.856;2023-11-18T09:17:35;12.30;81.60
51021;DHT22;38907;45.562;8.856;2023-11-18T09:22:37;12.30;84.10
51021;DHT22;38907;45.562;8.856;2023-11-18T09:27:39;12.40;82.10
51021;DHT22;38907;45.562;8.856;2023-11-18T09:32:42;12.60;83.10
51021;DHT22;38907;45.562;8.856;2023-11-18T09:37:48;12.50;83.20
51021;DHT22;38907;45.562;8.856;2023-11-18T09:42:51;12.70;81.90
51021;DHT22;38907;45.562;8.856;2023-11-18T09:47:54;12.90;79.90
51021;DHT22;38907;45.562;8.856;2023-11-18T09:52:59;12.80;82.10
51021;DHT22;38907;45.562;8.856;2023-11-18T09:58:06;12.90;81.20
51021;DHT22;38907;45.562;8.856;2023-11-18T10:03:15;13.10;79.70
51021;DHT22;38907;45.562;8.856;2023-11-18T10:08:16;13.10;79.20
51021;DHT22;38907;45.562;8.856;2023-11-18T10:13:19;13.20;78.30
51021;DHT22;38907;45.562;8.856;2023-11-18T10:18:25;13.40;77.50
51021;DHT22;38907;45.562;8.856;2023-11-18T10:23:29;13.40;81.20
51021;DHT22;38907;45.562;8.856;2023-11-18T10:28:35;13.50;82.50
51021;DHT22;38907;45.562;8.856;2023-11-18T10:33:40;13.60;78.80
51021;DHT22;38907;45.562;8.856;2023-11-18T10:38:42;13.70;77.30
51021;DHT22;38907;45.562;8.856;2023-11-18T10:44:05;13.70;75.70
51021;DHT22;38907;45.562;8.856;2023-11-18T10:49:08;13.80;77.40
51021;DHT22;38907;45.562;8.856;2023-11-18T10:54:11;13.90;78.90
51021;DHT22;38907;45.562;8.856;2023-11-18T10:59:17;14.00;76.20
51021;DHT22;38907;45.562;8.856;2023-11-18T11:04:21;14.10;76.80
51021;DHT22;38907;45.562;8.856;2023-11-18T11:09:23;14.20;79.00
51021;DHT22;38907;45.562;8.856;2023-11-18T11:14:32;14.10;76.80
51021;DHT22;38907;45.562;8.856;2023-11-18T11:19:49;14.30;77.00
51021;DHT22;38907;45.562;8.856;2023-11-18T11:25:05;14.40;79.40
51021;DHT22;38907;45.562;8.856;2023-11-18T11:30:23;14.40;78.60
51021;DHT22;38907;45.562;8.856;2023-11-18T11:35:37;14.50;77.70
51021;DHT22;38907;45.562;8.856;2023-11-18T11:40:42;14.60;77.90
51021;DHT22;38907;45.562;8.856;2023-11-18T11:45:44;14.70;82.40
51021;DHT22;38907;45.562;8.856;2023-11-18T11:50:57;14.60;81.10
51021;DHT22;38907;45.562;8.856;2023-11-18T11:56:05;14.50;81.50
51021;DHT22;38907;45.562;8.856;2023-11-18T12:01:16;14.60;79.60
51021;DHT22;38907;45.562;8.856;2023-11-18T12:06:26;14.60;78.90
51021;DHT22;38907;45.562;8.856;2023-11-18T12:11:32;14.70;81.20
51021;DHT22;38907;45.562;8.856;2023-11-18T12:17:00;14.50;76.60
51021;DHT22;38907;45.562;8.856;2023-11-18T12:22:09;14.50;75.80
51021;DHT22;38907;45.562;8.856;2023-11-18T12:27:41;14.60;77.10
51021;DHT22;38907;45.562;8.856;2023-11-18T12:32:58;14.70;78.80
51021;DHT22;38907;45.562;8.856;2023-11-18T12:38:26;14.50;78.30
51021;DHT22;38907;45.562;8.856;2023-11-18T12:43:47;14.70;77.10
51021;DHT22;38907;45.562;8.856;2023-11-18T12:48:53;14.60;76.40
51021;DHT22;38907;45.562;8.856;2023-11-18T12:54:02;14.50;77.00
51021;DHT22;38907;45.562;8.856;2023-11-18T12:59:07;14.60;77.40
51021;DHT22;38907;45.562;8.856;2023-11-18T13:04:10;14.70;76.10
51021;DHT22;38907;45.562;8.856;2023-11-18T13:09:13;14.70;77.10
51021;DHT22;38907;45.562;8.856;2023-11-18T13:14:26;14.70;77.80
51021;DHT22;38907;45.562;8.856;2023-11-18T13:19:28;14.80;76.70
51021;DHT22;38907;45.562;8.856;2023-11-18T13:24:34;14.80;76.30
51021;DHT22;38907;45.562;8.856;2023-11-18T13:29:38;14.80;76.00
51021;DHT22;38907;45.562;8.856;2023-11-18T13:34:40;14.80;76.80
51021;DHT22;38907;45.562;8.856;2023-11-18T13:39:44;14.80;75.80
51021;DHT22;38907;45.562;8.856;2023-11-18T13:44:47;14.80;77.30
51021;DHT22;38907;45.562;8.856;2023-11-18T13:49:53;14.70;75.00
51021;DHT22;38907;45.562;8.856;2023-11-18T13:54:56;14.70;78.00
51021;DHT22;38907;45.562;8.856;2023-11-18T14:00:00;14.70;77.10
51021;DHT22;38907;45.562;8.856;2023-11-18T14:05:01;14.60;77.10
51021;DHT22;38907;45.562;8.856;2023-11-18T14:10:08;14.60;76.40
51021;DHT22;38907;45.562;8.856;2023-11-18T14:15:13;14.50;76.00
51021;DHT22;38907;45.562;8.856;2023-11-18T14:20:16;14.40;76.60
51021;DHT22;38907;45.562;8.856;2023-11-18T14:25:19;14.40;80.00
51021;DHT22;38907;45.562;8.856;2023-11-18T14:30:24;14.30;82.30
51021;DHT22;38907;45.562;8.856;2023-11-18T14:35:26;14.30;80.50
51021;DHT22;38907;45.562;8.856;2023-11-18T14:40:30;14.30;80.10
51021;DHT22;38907;45.562;8.856;2023-11-18T14:45:32;14.20;81.80
51021;DHT22;38907;45.562;8.856;2023-11-18T14:50:35;14.10;82.30
51021;DHT22;38907;45.562;8.856;2023-11-18T14:55:40;14.10;84.20
51021;DHT22;38907;45.562;8.856;2023-11-18T15:00:42;14.00;85.50
51021;DHT22;38907;45.562;8.856;2023-11-18T15:05:44;14.00;85.70
51021;DHT22;38907;45.562;8.856;2023-11-18T15:10:48;13.90;84.50
51021;DHT22;38907;45.562;8.856;2023-11-18T15:15:51;13.90;85.80
51021;DHT22;38907;45.562;8.856;2023-11-18T15:20:53;13.80;86.60
51021;DHT22;38907;45.562;8.856;2023-11-18T15:25:58;13.70;85.80
51021;DHT22;38907;45.562;8.856;2023-11-18T15:31:00;13.70;84.90
51021;DHT22;38907;45.562;8.856;2023-11-18T15:36:04;13.50;89.50
51021;DHT22;38907;45.562;8.856;2023-11-18T15:41:09;13.30;90.80
51021;DHT22;38907;45.562;8.856;2023-11-18T15:46:11;13.10;91.40
51021;DHT22;38907;45.562;8.856;2023-11-18T15:51:13;13.00;92.10
51021;DHT22;38907;45.562;8.856;2023-11-18T15:56:17;12.90;92.60
51021;DHT22;38907;45.562;8.856;2023-11-18T16:01:19;12.60;91.50
51021;DHT22;38907;45.562;8.856;2023-11-18T16:06:21;12.60;94.60
51021;DHT22;38907;45.562;8.856;2023-11-18T16:11:24;12.50;94.80
51021;DHT22;38907;45.562;8.856;2023-11-18T16:16:27;12.30;96.40
51021;DHT22;38907;45.562;8.856;2023-11-18T16:21:28;12.10;99.90
51021;DHT22;38907;45.562;8.856;2023-11-18T16:26:33;12.10;95.90
51021;DHT22;38907;45.562;8.856;2023-11-18T16:31:35;12.10;97.10
51021;DHT22;38907;45.562;8.856;2023-11-18T16:36:36;11.90;97.40
51021;DHT22;38907;45.562;8.856;2023-11-18T16:41:41;11.80;98.80
51021;DHT22;38907;45.562;8.856;2023-11-18T16:46:43;11.80;99.90
51021;DHT22;38907;45.562;8.856;2023-11-18T16:51:45;11.70;99.90
51021;DHT22;38907;45.562;8.856;2023-11-18T16:56:49;11.20;99.90
51021;DHT22;38907;45.562;8.856;2023-11-18T17:01:53;11.30;99.90
51021;DHT22;38907;45.562;8.856;2023-11-18T17:06:54;11.00;99.90
51021;DHT22;38907;45.562;8.856;2023-11-18T17:11:59;10.90;99.90
51021;DHT22;38907;45.562;8.856;2023-11-18T17:17:01;10.90;99.90
51021;DHT22;38907;45.562;8.856;2023-11-18T17:22:04;10.90;99.90
51021;DHT22;38907;45.562;8.856;2023-11-18T17:27:07;10.90;99.90
51021;DHT22;38907;45.562;8.856;2023-11-18T17:32:09;10.80;99.90
51021;DHT22;38907;45.562;8.856;2023-11-18T17:37:11;10.70;99.90
51021;DHT22;38907;45.562;8.856;2023-11-18T17:42:14;10.50;99.90
51021;DHT22;38907;45.562;8.856;2023-11-18T17:47:16;10.50;99.90
51021;DHT22;38907;45.562;8.856;2023-11-18T17:52:18;10.40;99.90
51021;DHT22;38907;45.562;8.856;2023-11-18T17:57:21;10.70;99.90
51021;DHT22;38907;45.562;8.856;2023-11-18T18:02:23;10.70;99.90
51021;DHT22;38907;45.562;8.856;2023-11-18T18:07:25;10.30;99.90
51021;DHT22;38907;45.562;8.856;2023-11-18T18:12:29;10.30;99.90
51021;DHT22;38907;45.562;8.856;2023-11-18T18:17:32;10.40;99.90
51021;DHT22;38907;45.562;8.856;2023-11-18T18:22:34;10.00;99.90
51021;DHT22;38907;45.562;8.856;2023-11-18T18:27:37;9.80;99.90
51021;DHT22;38907;45.562;8.856;2023-11-18T18:32:39;9.90;99.90
51021;DHT22;38907;45.562;8.856;2023-11-18T18:37:41;9.80;99.90
51021;DHT22;38907;45.562;8.856;2023-11-18T18:42:45;9.80;99.90
51021;DHT22;38907;45.562;8.856;2023-11-18T18:47:47;9.80;99.90
51021;DHT22;38907;45.562;8.856;2023-11-18T18:52:48;9.60;99.90
51021;DHT22;38907;45.562;8.856;2023-11-18T18:57:52;9.70;99.90
51021;DHT22;38907;45.562;8.856;2023-11-18T19:02:54;9.60;99.90
51021;DHT22;38907;45.562;8.856;2023-11-18T19:07:56;9.60;99.90
51021;DHT22;38907;45.562;8.856;2023-11-18T19:12:59;9.30;99.90
51021;DHT22;38907;45.562;8.856;2023-11-18T19:18:01;9.20;99.90
51021;DHT22;38907;45.562;8.856;2023-11-18T19:23:04;9.10;99.90
51021;DHT22;38907;45.562;8.856;2023-11-18T19:28:08;9.20;99.90
51021;DHT22;38907;45.562;8.856;2023-11-18T19:33:10;9.10;99.90
51021;DHT22;38907;45.562;8.856;2023-11-18T19:38:13;9.10;99.90
51021;DHT22;38907;45.562;8.856;2023-11-18T19:43:16;8.90;99.90
51021;DHT22;38907;45.562;8.856;2023-11-18T19:48:18;8.60;99.90
51021;DHT22;38907;45.562;8.856;2023-11-18T19:53:20;8.60;99.90
51021;DHT22;38907;45.562;8.856;2023-11-18T19:58:23;8.60;99.90
51021;DHT22;38907;45.562;8.856;2023-11-18T20:03:25;8.80;99.90
51021;DHT22;38907;45.562;8.856;2023-11-18T20:08:27;9.00;99.90
51021;DHT22;38907;45.562;8.856;2023-11-18T20:13:31;9.10;99.90
51021;DHT22;38907;45.562;8.856;2023-11-18T20:18:33;9.00;99.90
51021;DHT22;38907;45.562;8.856;2023-11-18T20:23:34;8.80;99.90
51021;DHT22;38907;45.562;8.856;2023-11-18T20:28:37;8.70;99.90
51021;DHT22;38907;45.562;8.856;2023-11-18T20:33:39;8.70;99.90
51021;DHT22;38907;45.562;8.856;2023-11-18T20:38:41;8.70;99.90
51021;DHT22;38907;45.562;8.856;2023-11-18T20:43:45;8.90;99.90
51021;DHT22;38907;45.562;8.856;2023-11-18T20:48:47;8.90;99.90
51021;DHT22;38907;45.562;8.856;2023-11-18T20:53:49;8.90;99.90
51021;DHT22;38907;45.562;8.856;2023-11-18T20:58:53;9.20;99.90
51021;DHT22;38907;45.562;8.856;2023-11-18T21:03:55;9.10;99.90
51021;DHT22;38907;45.562;8.856;2023-11-18T21:08:57;9.10;99.90
51021;DHT22;38907;45.562;8.856;2023-11-18T21:14:01;8.70;99.90
51021;DHT22;38907;45.562;8.856;2023-11-18T21:19:03;8.90;99.90
51021;DHT22;38907;45.562;8.856;2023-11-18T21:24:07;8.70;99.90
51021;DHT22;38907;45.562;8.856;2023-11-18T21:29:10;8.70;99.90
51021;DHT22;38907;45.562;8.856;2023-11-18T21:34:12;8.70;99.90
51021;DHT22;38907;45.562;8.856;2023-11-18T21:39:14;8.90;99.90
51021;DHT22;38907;45.562;8.856;2023-11-18T21:44:20;8.90;99.90
51021;DHT22;38907;45.562;8.856;2023-11-18T21:49:22;8.90;99.90
51021;DHT22;38907;45.562;8.856;2023-11-18T21:54:23;8.50;99.90
51021;DHT22;38907;45.562;8.856;2023-11-18T21:59:32;8.50;99.90
51021;DHT22;38907;45.562;8.856;2023-11-18T22:04:33;8.50;99.90
51021;DHT22;38907;45.562;8.856;2023-11-18T22:09:36;8.80;99.90
51021;DHT22;38907;45.562;8.856;2023-11-18T22:14:39;8.60;99.90
51021;DHT22;38907;45.562;8.856;2023-11-18T22:19:41;8.40;99.90
51021;DHT22;38907;45.562;8.856;2023-11-18T22:24:46;8.60;99.90
51021;DHT22;38907;45.562;8.856;2023-11-18T22:29:49;8.50;99.90
51021;DHT22;38907;45.562;8.856;2023-11-18T22:34:52;8.70;99.90
51021;DHT22;38907;45.562;8.856;2023-11-18T22:39:56;8.60;99.90
51021;DHT22;38907;45.562;8.856;2023-11-18T22:44:59;8.50;99.90
51021;DHT22;38907;45.562;8.856;2023-11-18T22:50:02;8.30;99.90
51021;DHT22;38907;45.562;8.856;2023-11-18T22:55:06;8.50;99.90
51021;DHT22;38907;45.562;8.856;2023-11-18T23:00:12;8.40;99.90
51021;DHT22;38907;45.562;8.856;2023-11-18T23:05:32;8.20;99.90
51021;DHT22;38907;45.562;8.856;2023-11-18T23:10:35;8.30;99.90
51021;DHT22;38907;45.562;8.856;2023-11-18T23:15:39;8.20;99.90
51021;DHT22;38907;45.562;8.856;2023-11-18T23:20:41;8.20;99.90
51021;DHT22;38907;45.562;8.856;2023-11-18T23:25:43;8.30;99.90
51021;DHT22;38907;45.562;8.856;2023-11-18T23:30:46;8.30;99.90
51021;DHT22;38907;45.562;8.856;2023-11-18T23:35:48;8.10;99.90
51021;DHT22;38907;45.562;8.856;2023-11-18T23:40:51;8.10;99.90
51021;DHT22;38907;45.562;8.856;2023-11-18T23:45:54;8.10;99.90
51021;DHT22;38907;45.562;8.856;2023-11-18T23:50:56;8.20;99.90
51021;DHT22;38907;45.562;8.856;2023-11-18T23:55:58;8.10;99.90
